VTCC/CNX METAR and TAF weather

Enter ICAO airport designator
Station Type Date Time Source
VTCC METAR 2020/12/05 05:30 UTC NOAA

VTCC 050530Z 15005KT 080V200 9999 FEW035 27/15 Q1016 NOSIG


Station Type Date Time Source
VTCC Decoded METAR 2020/12/05 05:30 UTC NOAA

Chiang Mai, Thailand (VTCC) 18-47N 098-59E 314M
Dec 05, 2020 - 12:30 AM EST / 2020.12.05 0530 UTC
Wind: from the SSE (150 degrees) at 6 MPH (5 KT) (direction variable):0
Visibility: greater than 7 mile(s):0
Sky conditions: mostly clear
Temperature: 80 F (27 C)
Dew Point: 59 F (15 C)
Relative Humidity: 47%
Pressure (altimeter): 30.00 in. Hg (1016 hPa)
ob: VTCC 050530Z 15005KT 080V200 9999 FEW035 27/15 Q1016 NOSIG
cycle: 5

Station Type Date Time Source
VTCC TAF 2020/12/05 06:36 UTC NOAA

TAF VTCC 050500Z 0506/0612 18007KT 9999 FEW035
BECMG 0516/0518 33004KT
BECMG 0521/0523 06005KT

Example: see airport list